Terminal Aerodrome Forecast
Issued by NWS

Home | Current Version | Previous Version | Text Only | Print | Product List | Glossary On
Versions: 1 2 3 4 5 6 7 8 9 10 11 12
000
FTAK31 PAJN 012300
TAFAJN
TAF
PAJN 012321Z 0200/0224 25010KT P6SM SCT060 BKN120
     FM020600 31003KT P6SM SCT050 BKN100
     FM020900 09002KT P6SM BKN050 OVC080
     FM021400 08004KT P6SM BKN040 OVC060
     FM021800 13005KT P6SM BKN040 BKN060=

USA.gov is the U.S. government's official web portal to all federal, state and local government web resources and services.